sensor_id;sensor_type;location;lat;lon;timestamp;P1;durP1;ratioP1;P2;durP2;ratioP2
13483;SDS011;6814;57.786;12.080;2024-03-08T00:00:59;9.53;;;7.13;;
13483;SDS011;6814;57.786;12.080;2024-03-08T00:03:25;12.30;;;7.30;;
13483;SDS011;6814;57.786;12.080;2024-03-08T00:05:54;10.63;;;7.50;;
13483;SDS011;6814;57.786;12.080;2024-03-08T00:08:21;10.33;;;6.93;;
13483;SDS011;6814;57.786;12.080;2024-03-08T00:10:47;8.90;;;7.10;;
13483;SDS011;6814;57.786;12.080;2024-03-08T00:13:15;12.10;;;7.13;;
13483;SDS011;6814;57.786;12.080;2024-03-08T00:15:42;10.13;;;7.33;;
13483;SDS011;6814;57.786;12.080;2024-03-08T00:18:09;11.10;;;7.33;;
13483;SDS011;6814;57.786;12.080;2024-03-08T00:20:36;13.03;;;8.10;;
13483;SDS011;6814;57.786;12.080;2024-03-08T00:23:03;13.87;;;7.67;;
13483;SDS011;6814;57.786;12.080;2024-03-08T00:25:30;15.63;;;7.60;;
13483;SDS011;6814;57.786;12.080;2024-03-08T00:27:57;16.67;;;11.63;;
13483;SDS011;6814;57.786;12.080;2024-03-08T00:30:26;15.47;;;11.53;;
13483;SDS011;6814;57.786;12.080;2024-03-08T00:32:53;11.67;;;8.40;;
13483;SDS011;6814;57.786;12.080;2024-03-08T00:35:18;11.97;;;7.10;;
13483;SDS011;6814;57.786;12.080;2024-03-08T00:37:45;11.10;;;8.23;;
13483;SDS011;6814;57.786;12.080;2024-03-08T00:40:12;14.43;;;11.13;;
13483;SDS011;6814;57.786;12.080;2024-03-08T00:42:39;17.00;;;11.70;;
13483;SDS011;6814;57.786;12.080;2024-03-08T00:45:06;15.27;;;11.13;;
13483;SDS011;6814;57.786;12.080;2024-03-08T00:47:34;16.67;;;10.93;;
13483;SDS011;6814;57.786;12.080;2024-03-08T00:50:01;15.03;;;10.83;;
13483;SDS011;6814;57.786;12.080;2024-03-08T00:52:29;19.03;;;12.37;;
13483;SDS011;6814;57.786;12.080;2024-03-08T00:54:55;15.80;;;11.23;;
13483;SDS011;6814;57.786;12.080;2024-03-08T00:57:22;20.30;;;12.20;;
13483;SDS011;6814;57.786;12.080;2024-03-08T00:59:49;19.73;;;12.37;;
13483;SDS011;6814;57.786;12.080;2024-03-08T01:02:16;20.03;;;12.53;;
13483;SDS011;6814;57.786;12.080;2024-03-08T01:04:45;16.13;;;11.77;;
13483;SDS011;6814;57.786;12.080;2024-03-08T01:07:13;16.53;;;12.73;;
13483;SDS011;6814;57.786;12.080;2024-03-08T01:09:40;16.53;;;12.00;;
13483;SDS011;6814;57.786;12.080;2024-03-08T01:12:07;18.30;;;12.50;;
13483;SDS011;6814;57.786;12.080;2024-03-08T01:14:33;18.93;;;12.03;;
13483;SDS011;6814;57.786;12.080;2024-03-08T01:17:00;17.83;;;12.87;;
13483;SDS011;6814;57.786;12.080;2024-03-08T01:19:27;20.07;;;13.33;;
13483;SDS011;6814;57.786;12.080;2024-03-08T01:21:55;17.93;;;13.13;;
13483;SDS011;6814;57.786;12.080;2024-03-08T01:24:22;19.50;;;13.77;;
13483;SDS011;6814;57.786;12.080;2024-03-08T01:26:48;16.37;;;13.17;;
13483;SDS011;6814;57.786;12.080;2024-03-08T01:29:15;19.17;;;13.30;;
13483;SDS011;6814;57.786;12.080;2024-03-08T01:31:42;19.73;;;12.87;;
13483;SDS011;6814;57.786;12.080;2024-03-08T01:34:09;22.50;;;13.03;;
13483;SDS011;6814;57.786;12.080;2024-03-08T01:36:37;18.63;;;13.07;;
13483;SDS011;6814;57.786;12.080;2024-03-08T01:39:05;18.77;;;12.80;;
13483;SDS011;6814;57.786;12.080;2024-03-08T01:41:33;20.63;;;13.33;;
13483;SDS011;6814;57.786;12.080;2024-03-08T01:44:00;20.40;;;13.40;;
13483;SDS011;6814;57.786;12.080;2024-03-08T01:46:27;19.13;;;13.03;;
13483;SDS011;6814;57.786;12.080;2024-03-08T01:48:54;22.13;;;13.80;;
13483;SDS011;6814;57.786;12.080;2024-03-08T01:51:22;22.10;;;14.17;;
13483;SDS011;6814;57.786;12.080;2024-03-08T01:53:48;19.23;;;14.10;;
13483;SDS011;6814;57.786;12.080;2024-03-08T01:56:17;22.60;;;14.70;;
13483;SDS011;6814;57.786;12.080;2024-03-08T01:58:47;18.33;;;13.77;;
13483;SDS011;6814;57.786;12.080;2024-03-08T02:01:14;23.83;;;14.67;;
13483;SDS011;6814;57.786;12.080;2024-03-08T02:03:41;22.77;;;14.67;;
13483;SDS011;6814;57.786;12.080;2024-03-08T02:06:09;20.53;;;15.33;;
13483;SDS011;6814;57.786;12.080;2024-03-08T02:08:36;23.27;;;14.90;;
13483;SDS011;6814;57.786;12.080;2024-03-08T02:11:03;22.27;;;15.07;;
13483;SDS011;6814;57.786;12.080;2024-03-08T02:13:32;23.27;;;14.93;;
13483;SDS011;6814;57.786;12.080;2024-03-08T02:15:59;25.10;;;16.37;;
13483;SDS011;6814;57.786;12.080;2024-03-08T02:18:27;22.23;;;15.73;;
13483;SDS011;6814;57.786;12.080;2024-03-08T02:20:55;22.17;;;16.43;;
13483;SDS011;6814;57.786;12.080;2024-03-08T02:23:22;25.47;;;15.70;;
13483;SDS011;6814;57.786;12.080;2024-03-08T02:25:50;21.23;;;14.73;;
13483;SDS011;6814;57.786;12.080;2024-03-08T02:28:17;23.17;;;15.50;;
13483;SDS011;6814;57.786;12.080;2024-03-08T02:30:44;18.80;;;14.20;;
13483;SDS011;6814;57.786;12.080;2024-03-08T02:33:13;21.03;;;14.57;;
13483;SDS011;6814;57.786;12.080;2024-03-08T02:35:41;23.63;;;13.90;;
13483;SDS011;6814;57.786;12.080;2024-03-08T02:38:12;21.97;;;14.73;;
13483;SDS011;6814;57.786;12.080;2024-03-08T02:40:41;23.47;;;15.27;;
13483;SDS011;6814;57.786;12.080;2024-03-08T02:43:08;20.30;;;14.53;;
13483;SDS011;6814;57.786;12.080;2024-03-08T02:45:35;24.43;;;16.07;;
13483;SDS011;6814;57.786;12.080;2024-03-08T02:48:01;25.83;;;15.70;;
13483;SDS011;6814;57.786;12.080;2024-03-08T02:50:28;29.73;;;18.67;;
13483;SDS011;6814;57.786;12.080;2024-03-08T02:52:55;30.53;;;17.47;;
13483;SDS011;6814;57.786;12.080;2024-03-08T02:55:23;26.50;;;17.97;;
13483;SDS011;6814;57.786;12.080;2024-03-08T02:57:51;26.13;;;18.17;;
13483;SDS011;6814;57.786;12.080;2024-03-08T03:00:20;24.30;;;17.27;;
13483;SDS011;6814;57.786;12.080;2024-03-08T03:02:48;29.03;;;17.77;;
13483;SDS011;6814;57.786;12.080;2024-03-08T03:05:17;24.57;;;16.97;;
13483;SDS011;6814;57.786;12.080;2024-03-08T03:07:45;24.27;;;16.80;;
13483;SDS011;6814;57.786;12.080;2024-03-08T03:10:11;25.37;;;17.07;;
13483;SDS011;6814;57.786;12.080;2024-03-08T03:12:43;23.47;;;16.67;;
13483;SDS011;6814;57.786;12.080;2024-03-08T03:15:10;23.77;;;17.73;;
13483;SDS011;6814;57.786;12.080;2024-03-08T03:17:38;26.83;;;16.73;;
13483;SDS011;6814;57.786;12.080;2024-03-08T03:20:05;28.07;;;19.00;;
13483;SDS011;6814;57.786;12.080;2024-03-08T03:22:36;31.50;;;18.53;;
13483;SDS011;6814;57.786;12.080;2024-03-08T03:25:03;27.87;;;18.43;;
13483;SDS011;6814;57.786;12.080;2024-03-08T03:27:31;30.17;;;19.20;;
13483;SDS011;6814;57.786;12.080;2024-03-08T03:30:00;27.50;;;18.17;;
13483;SDS011;6814;57.786;12.080;2024-03-08T03:32:46;29.77;;;19.20;;
13483;SDS011;6814;57.786;12.080;2024-03-08T03:35:13;27.73;;;18.87;;
13483;SDS011;6814;57.786;12.080;2024-03-08T03:37:41;29.60;;;18.30;;
13483;SDS011;6814;57.786;12.080;2024-03-08T03:40:11;29.13;;;18.77;;
13483;SDS011;6814;57.786;12.080;2024-03-08T03:42:38;30.07;;;19.27;;
13483;SDS011;6814;57.786;12.080;2024-03-08T03:45:07;27.40;;;18.67;;
13483;SDS011;6814;57.786;12.080;2024-03-08T03:47:35;27.60;;;18.53;;
13483;SDS011;6814;57.786;12.080;2024-03-08T03:50:01;31.33;;;19.20;;
13483;SDS011;6814;57.786;12.080;2024-03-08T03:52:28;30.57;;;18.80;;
13483;SDS011;6814;57.786;12.080;2024-03-08T03:54:55;25.13;;;17.33;;
13483;SDS011;6814;57.786;12.080;2024-03-08T03:57:22;36.43;;;20.37;;
13483;SDS011;6814;57.786;12.080;2024-03-08T03:59:49;35.50;;;19.73;;
13483;SDS011;6814;57.786;12.080;2024-03-08T04:02:17;30.33;;;19.33;;
13483;SDS011;6814;57.786;12.080;2024-03-08T04:04:45;33.83;;;20.03;;
13483;SDS011;6814;57.786;12.080;2024-03-08T04:07:12;31.53;;;20.37;;
13483;SDS011;6814;57.786;12.080;2024-03-08T04:09:39;32.70;;;19.57;;
13483;SDS011;6814;57.786;12.080;2024-03-08T04:12:09;33.23;;;20.67;;
13483;SDS011;6814;57.786;12.080;2024-03-08T04:14:53;32.37;;;19.47;;
13483;SDS011;6814;57.786;12.080;2024-03-08T04:17:22;35.63;;;20.63;;
13483;SDS011;6814;57.786;12.080;2024-03-08T04:19:49;37.70;;;20.90;;
13483;SDS011;6814;57.786;12.080;2024-03-08T04:22:15;30.90;;;18.90;;
13483;SDS011;6814;57.786;12.080;2024-03-08T04:24:43;28.53;;;19.33;;
13483;SDS011;6814;57.786;12.080;2024-03-08T04:27:10;30.53;;;18.60;;
13483;SDS011;6814;57.786;12.080;2024-03-08T04:29:37;28.13;;;18.50;;
13483;SDS011;6814;57.786;12.080;2024-03-08T04:32:04;29.17;;;17.97;;
13483;SDS011;6814;57.786;12.080;2024-03-08T04:34:33;27.27;;;18.13;;
13483;SDS011;6814;57.786;12.080;2024-03-08T04:37:00;26.30;;;17.50;;
13483;SDS011;6814;57.786;12.080;2024-03-08T04:39:26;28.37;;;17.27;;
13483;SDS011;6814;57.786;12.080;2024-03-08T04:41:54;26.73;;;18.10;;
13483;SDS011;6814;57.786;12.080;2024-03-08T04:44:22;29.30;;;18.77;;
13483;SDS011;6814;57.786;12.080;2024-03-08T04:46:49;28.00;;;18.93;;
13483;SDS011;6814;57.786;12.080;2024-03-08T04:49:16;28.73;;;18.20;;
13483;SDS011;6814;57.786;12.080;2024-03-08T04:51:44;32.73;;;20.10;;
13483;SDS011;6814;57.786;12.080;2024-03-08T04:54:11;28.30;;;18.70;;
13483;SDS011;6814;57.786;12.080;2024-03-08T04:56:38;25.40;;;17.43;;
13483;SDS011;6814;57.786;12.080;2024-03-08T04:59:05;27.07;;;18.83;;
13483;SDS011;6814;57.786;12.080;2024-03-08T05:01:33;28.03;;;18.57;;
13483;SDS011;6814;57.786;12.080;2024-03-08T05:04:01;28.50;;;18.73;;
13483;SDS011;6814;57.786;12.080;2024-03-08T05:06:28;29.07;;;18.43;;
13483;SDS011;6814;57.786;12.080;2024-03-08T05:08:57;26.43;;;18.20;;
13483;SDS011;6814;57.786;12.080;2024-03-08T05:11:23;26.97;;;19.30;;
13483;SDS011;6814;57.786;12.080;2024-03-08T05:13:50;29.83;;;19.03;;
13483;SDS011;6814;57.786;12.080;2024-03-08T05:16:17;30.23;;;18.67;;
13483;SDS011;6814;57.786;12.080;2024-03-08T05:18:43;28.93;;;19.07;;
13483;SDS011;6814;57.786;12.080;2024-03-08T05:21:12;31.37;;;19.57;;
13483;SDS011;6814;57.786;12.080;2024-03-08T05:23:38;26.73;;;17.70;;
13483;SDS011;6814;57.786;12.080;2024-03-08T05:26:07;30.07;;;19.10;;
13483;SDS011;6814;57.786;12.080;2024-03-08T05:28:33;28.40;;;18.07;;
13483;SDS011;6814;57.786;12.080;2024-03-08T05:31:00;28.93;;;18.90;;
13483;SDS011;6814;57.786;12.080;2024-03-08T05:33:27;30.67;;;19.00;;
13483;SDS011;6814;57.786;12.080;2024-03-08T05:35:53;31.17;;;18.90;;
13483;SDS011;6814;57.786;12.080;2024-03-08T05:38:21;29.20;;;18.63;;
13483;SDS011;6814;57.786;12.080;2024-03-08T05:40:47;26.57;;;18.00;;
13483;SDS011;6814;57.786;12.080;2024-03-08T05:43:15;28.97;;;18.10;;
13483;SDS011;6814;57.786;12.080;2024-03-08T05:45:44;25.73;;;17.73;;
13483;SDS011;6814;57.786;12.080;2024-03-08T05:48:11;25.47;;;17.50;;
13483;SDS011;6814;57.786;12.080;2024-03-08T05:50:38;24.50;;;18.03;;
13483;SDS011;6814;57.786;12.080;2024-03-08T05:53:04;26.17;;;16.70;;
13483;SDS011;6814;57.786;12.080;2024-03-08T05:55:31;23.20;;;17.07;;
13483;SDS011;6814;57.786;12.080;2024-03-08T05:58:00;26.40;;;16.87;;
13483;SDS011;6814;57.786;12.080;2024-03-08T06:00:28;25.27;;;15.97;;
13483;SDS011;6814;57.786;12.080;2024-03-08T06:02:56;24.60;;;15.83;;
13483;SDS011;6814;57.786;12.080;2024-03-08T06:05:23;25.50;;;17.30;;
13483;SDS011;6814;57.786;12.080;2024-03-08T06:07:50;28.80;;;16.60;;
13483;SDS011;6814;57.786;12.080;2024-03-08T06:10:20;23.23;;;16.77;;
13483;SDS011;6814;57.786;12.080;2024-03-08T06:13:07;26.17;;;16.70;;
13483;SDS011;6814;57.786;12.080;2024-03-08T06:15:38;23.43;;;15.67;;
13483;SDS011;6814;57.786;12.080;2024-03-08T06:18:05;23.57;;;15.63;;
13483;SDS011;6814;57.786;12.080;2024-03-08T06:20:35;20.30;;;15.10;;
13483;SDS011;6814;57.786;12.080;2024-03-08T06:23:02;20.87;;;14.73;;
13483;SDS011;6814;57.786;12.080;2024-03-08T06:25:32;23.77;;;15.60;;
13483;SDS011;6814;57.786;12.080;2024-03-08T06:28:03;20.80;;;14.90;;
13483;SDS011;6814;57.786;12.080;2024-03-08T06:30:30;22.83;;;15.07;;
13483;SDS011;6814;57.786;12.080;2024-03-08T06:32:59;19.27;;;14.47;;
13483;SDS011;6814;57.786;12.080;2024-03-08T06:35:25;21.40;;;14.77;;
13483;SDS011;6814;57.786;12.080;2024-03-08T06:37:52;20.87;;;14.47;;
13483;SDS011;6814;57.786;12.080;2024-03-08T06:40:19;20.53;;;14.03;;
13483;SDS011;6814;57.786;12.080;2024-03-08T06:42:45;19.23;;;13.73;;
13483;SDS011;6814;57.786;12.080;2024-03-08T06:45:12;21.63;;;14.50;;
13483;SDS011;6814;57.786;12.080;2024-03-08T06:47:44;19.20;;;13.40;;
13483;SDS011;6814;57.786;12.080;2024-03-08T06:50:12;20.77;;;13.17;;
13483;SDS011;6814;57.786;12.080;2024-03-08T06:52:40;21.87;;;13.93;;
13483;SDS011;6814;57.786;12.080;2024-03-08T06:55:07;17.13;;;13.30;;
13483;SDS011;6814;57.786;12.080;2024-03-08T06:57:37;20.73;;;12.90;;
13483;SDS011;6814;57.786;12.080;2024-03-08T07:00:04;19.50;;;13.30;;
13483;SDS011;6814;57.786;12.080;2024-03-08T07:02:34;17.93;;;12.30;;
13483;SDS011;6814;57.786;12.080;2024-03-08T07:05:01;16.13;;;12.57;;
13483;SDS011;6814;57.786;12.080;2024-03-08T07:07:30;20.47;;;12.90;;
13483;SDS011;6814;57.786;12.080;2024-03-08T07:09:57;19.27;;;12.53;;
13483;SDS011;6814;57.786;12.080;2024-03-08T07:12:24;16.53;;;12.60;;
13483;SDS011;6814;57.786;12.080;2024-03-08T07:14:51;18.20;;;12.87;;
13483;SDS011;6814;57.786;12.080;2024-03-08T07:17:18;22.43;;;12.73;;
13483;SDS011;6814;57.786;12.080;2024-03-08T07:19:45;18.77;;;12.60;;
13483;SDS011;6814;57.786;12.080;2024-03-08T07:22:12;18.10;;;12.77;;
13483;SDS011;6814;57.786;12.080;2024-03-08T07:24:40;19.60;;;12.90;;
13483;SDS011;6814;57.786;12.080;2024-03-08T07:27:21;17.47;;;13.70;;
13483;SDS011;6814;57.786;12.080;2024-03-08T07:29:47;19.83;;;13.17;;
13483;SDS011;6814;57.786;12.080;2024-03-08T07:32:14;17.63;;;13.13;;
13483;SDS011;6814;57.786;12.080;2024-03-08T07:34:46;17.00;;;13.40;;
13483;SDS011;6814;57.786;12.080;2024-03-08T07:37:13;20.30;;;13.67;;
13483;SDS011;6814;57.786;12.080;2024-03-08T07:39:41;21.03;;;14.00;;
13483;SDS011;6814;57.786;12.080;2024-03-08T07:42:08;18.20;;;13.57;;
13483;SDS011;6814;57.786;12.080;2024-03-08T07:44:35;17.53;;;13.47;;
13483;SDS011;6814;57.786;12.080;2024-03-08T07:47:02;19.77;;;14.00;;
13483;SDS011;6814;57.786;12.080;2024-03-08T07:49:29;17.90;;;13.87;;
13483;SDS011;6814;57.786;12.080;2024-03-08T07:51:56;19.03;;;12.77;;
13483;SDS011;6814;57.786;12.080;2024-03-08T07:54:23;17.47;;;11.50;;
13483;SDS011;6814;57.786;12.080;2024-03-08T07:56:52;15.40;;;11.63;;
13483;SDS011;6814;57.786;12.080;2024-03-08T07:59:19;17.77;;;11.47;;
13483;SDS011;6814;57.786;12.080;2024-03-08T08:01:46;14.00;;;11.93;;
13483;SDS011;6814;57.786;12.080;2024-03-08T08:04:13;15.47;;;12.03;;
13483;SDS011;6814;57.786;12.080;2024-03-08T08:06:43;14.83;;;11.53;;
13483;SDS011;6814;57.786;12.080;2024-03-08T08:09:09;16.37;;;11.60;;
13483;SDS011;6814;57.786;12.080;2024-03-08T08:11:40;13.13;;;9.03;;
13483;SDS011;6814;57.786;12.080;2024-03-08T08:14:10;13.23;;;8.60;;
13483;SDS011;6814;57.786;12.080;2024-03-08T08:16:36;13.17;;;8.23;;
13483;SDS011;6814;57.786;12.080;2024-03-08T08:19:06;13.53;;;8.83;;
13483;SDS011;6814;57.786;12.080;2024-03-08T08:21:33;13.97;;;8.50;;
13483;SDS011;6814;57.786;12.080;2024-03-08T08:24:02;16.00;;;8.37;;
13483;SDS011;6814;57.786;12.080;2024-03-08T08:26:28;11.63;;;8.60;;
13483;SDS011;6814;57.786;12.080;2024-03-08T08:28:55;14.20;;;8.80;;
13483;SDS011;6814;57.786;12.080;2024-03-08T08:31:24;14.00;;;8.80;;
13483;SDS011;6814;57.786;12.080;2024-03-08T08:33:51;14.53;;;8.97;;
13483;SDS011;6814;57.786;12.080;2024-03-08T08:36:23;9.53;;;7.77;;
13483;SDS011;6814;57.786;12.080;2024-03-08T08:38:50;11.83;;;7.20;;
13483;SDS011;6814;57.786;12.080;2024-03-08T08:41:19;10.07;;;7.93;;
13483;SDS011;6814;57.786;12.080;2024-03-08T08:43:46;14.93;;;8.07;;
13483;SDS011;6814;57.786;12.080;2024-03-08T08:46:16;12.57;;;7.40;;
13483;SDS011;6814;57.786;12.080;2024-03-08T08:51:48;7.47;;;6.00;;
13483;SDS011;6814;57.786;12.080;2024-03-08T08:54:14;10.67;;;6.83;;
13483;SDS011;6814;57.786;12.080;2024-03-08T08:56:42;9.00;;;6.10;;
13483;SDS011;6814;57.786;12.080;2024-03-08T08:59:09;7.83;;;6.63;;
13483;SDS011;6814;57.786;12.080;2024-03-08T09:01:38;9.13;;;6.13;;
13483;SDS011;6814;57.786;12.080;2024-03-08T09:04:05;7.97;;;6.20;;
13483;SDS011;6814;57.786;12.080;2024-03-08T09:06:32;8.63;;;6.10;;
13483;SDS011;6814;57.786;12.080;2024-03-08T09:09:01;8.80;;;6.23;;
13483;SDS011;6814;57.786;12.080;2024-03-08T09:11:29;8.53;;;6.30;;
13483;SDS011;6814;57.786;12.080;2024-03-08T09:13:56;7.90;;;5.87;;
13483;SDS011;6814;57.786;12.080;2024-03-08T09:16:22;9.10;;;5.93;;
13483;SDS011;6814;57.786;12.080;2024-03-08T09:18:50;7.23;;;6.13;;
13483;SDS011;6814;57.786;12.080;2024-03-08T09:21:16;8.63;;;5.57;;
13483;SDS011;6814;57.786;12.080;2024-03-08T09:23:43;6.07;;;5.10;;
13483;SDS011;6814;57.786;12.080;2024-03-08T09:26:11;11.07;;;5.60;;
13483;SDS011;6814;57.786;12.080;2024-03-08T09:28:38;7.67;;;5.53;;
13483;SDS011;6814;57.786;12.080;2024-03-08T09:31:04;7.03;;;5.10;;
13483;SDS011;6814;57.786;12.080;2024-03-08T09:33:34;7.30;;;4.73;;
13483;SDS011;6814;57.786;12.080;2024-03-08T09:36:01;6.87;;;4.63;;
13483;SDS011;6814;57.786;12.080;2024-03-08T09:38:29;5.40;;;4.90;;
13483;SDS011;6814;57.786;12.080;2024-03-08T09:40:55;5.80;;;4.80;;
13483;SDS011;6814;57.786;12.080;2024-03-08T09:43:24;8.60;;;4.30;;
13483;SDS011;6814;57.786;12.080;2024-03-08T09:45:51;5.93;;;5.03;;
13483;SDS011;6814;57.786;12.080;2024-03-08T09:48:18;7.23;;;5.00;;
13483;SDS011;6814;57.786;12.080;2024-03-08T09:50:45;4.87;;;4.43;;
13483;SDS011;6814;57.786;12.080;2024-03-08T09:53:26;9.93;;;4.40;;
13483;SDS011;6814;57.786;12.080;2024-03-08T09:55:52;5.80;;;4.27;;
13483;SDS011;6814;57.786;12.080;2024-03-08T09:58:19;5.60;;;4.07;;
13483;SDS011;6814;57.786;12.080;2024-03-08T10:01:05;5.07;;;4.10;;
13483;SDS011;6814;57.786;12.080;2024-03-08T10:03:32;9.50;;;4.20;;
13483;SDS011;6814;57.786;12.080;2024-03-08T10:05:58;6.07;;;3.97;;
13483;SDS011;6814;57.786;12.080;2024-03-08T10:08:25;6.17;;;3.63;;
13483;SDS011;6814;57.786;12.080;2024-03-08T10:10:54;7.40;;;4.00;;
13483;SDS011;6814;57.786;12.080;2024-03-08T10:13:23;5.73;;;3.63;;
13483;SDS011;6814;57.786;12.080;2024-03-08T10:15:52;4.63;;;3.90;;
13483;SDS011;6814;57.786;12.080;2024-03-08T10:18:20;4.80;;;3.70;;
13483;SDS011;6814;57.786;12.080;2024-03-08T10:21:01;4.47;;;4.03;;
13483;SDS011;6814;57.786;12.080;2024-03-08T10:23:29;5.00;;;3.77;;
13483;SDS011;6814;57.786;12.080;2024-03-08T10:25:56;4.30;;;3.33;;
13483;SDS011;6814;57.786;12.080;2024-03-08T10:28:24;4.10;;;3.53;;
13483;SDS011;6814;57.786;12.080;2024-03-08T10:30:51;6.50;;;3.63;;
13483;SDS011;6814;57.786;12.080;2024-03-08T10:33:19;6.87;;;3.70;;
13483;SDS011;6814;57.786;12.080;2024-03-08T10:35:46;4.67;;;3.80;;
13483;SDS011;6814;57.786;12.080;2024-03-08T10:38:13;5.77;;;3.33;;
13483;SDS011;6814;57.786;12.080;2024-03-08T10:40:41;5.47;;;3.33;;
13483;SDS011;6814;57.786;12.080;2024-03-08T10:43:12;5.30;;;3.33;;
13483;SDS011;6814;57.786;12.080;2024-03-08T10:45:40;8.70;;;3.00;;
13483;SDS011;6814;57.786;12.080;2024-03-08T10:48:17;9.20;;;3.23;;
13483;SDS011;6814;57.786;12.080;2024-03-08T10:50:49;4.63;;;3.13;;
13483;SDS011;6814;57.786;12.080;2024-03-08T10:53:15;4.03;;;3.00;;
13483;SDS011;6814;57.786;12.080;2024-03-08T10:55:44;4.53;;;3.20;;
13483;SDS011;6814;57.786;12.080;2024-03-08T10:58:10;5.93;;;3.43;;
13483;SDS011;6814;57.786;12.080;2024-03-08T11:00:37;3.53;;;3.00;;
13483;SDS011;6814;57.786;12.080;2024-03-08T11:03:06;3.97;;;2.90;;
13483;SDS011;6814;57.786;12.080;2024-03-08T11:05:36;3.53;;;3.00;;
13483;SDS011;6814;57.786;12.080;2024-03-08T11:08:08;6.50;;;2.70;;
13483;SDS011;6814;57.786;12.080;2024-03-08T11:10:46;3.47;;;2.90;;
13483;SDS011;6814;57.786;12.080;2024-03-08T11:16:01;4.50;;;2.77;;
13483;SDS011;6814;57.786;12.080;2024-03-08T11:18:32;3.20;;;2.90;;
13483;SDS011;6814;57.786;12.080;2024-03-08T11:20:59;2.60;;;2.40;;
13483;SDS011;6814;57.786;12.080;2024-03-08T11:23:32;3.00;;;2.47;;
13483;SDS011;6814;57.786;12.080;2024-03-08T11:26:03;3.40;;;2.33;;
13483;SDS011;6814;57.786;12.080;2024-03-08T11:28:39;3.90;;;2.60;;
13483;SDS011;6814;57.786;12.080;2024-03-08T11:31:24;5.53;;;2.70;;
13483;SDS011;6814;57.786;12.080;2024-03-08T11:33:51;2.60;;;2.40;;
13483;SDS011;6814;57.786;12.080;2024-03-08T11:36:22;3.10;;;2.70;;
13483;SDS011;6814;57.786;12.080;2024-03-08T11:38:51;4.70;;;2.63;;
13483;SDS011;6814;57.786;12.080;2024-03-08T11:41:20;2.60;;;2.40;;
13483;SDS011;6814;57.786;12.080;2024-03-08T11:43:48;13.93;;;2.90;;
13483;SDS011;6814;57.786;12.080;2024-03-08T11:46:16;2.80;;;2.60;;
13483;SDS011;6814;57.786;12.080;2024-03-08T11:48:44;3.17;;;2.80;;
13483;SDS011;6814;57.786;12.080;2024-03-08T11:51:11;4.80;;;2.93;;
13483;SDS011;6814;57.786;12.080;2024-03-08T11:53:39;2.97;;;2.70;;
13483;SDS011;6814;57.786;12.080;2024-03-08T11:56:08;3.30;;;3.00;;
13483;SDS011;6814;57.786;12.080;2024-03-08T11:58:35;4.93;;;2.77;;
13483;SDS011;6814;57.786;12.080;2024-03-08T12:01:03;3.00;;;2.50;;
13483;SDS011;6814;57.786;12.080;2024-03-08T12:03:30;2.37;;;2.20;;
13483;SDS011;6814;57.786;12.080;2024-03-08T12:05:59;2.50;;;2.30;;
13483;SDS011;6814;57.786;12.080;2024-03-08T12:08:26;5.83;;;2.50;;
13483;SDS011;6814;57.786;12.080;2024-03-08T12:10:54;4.60;;;2.43;;
13483;SDS011;6814;57.786;12.080;2024-03-08T12:13:26;3.50;;;2.20;;
13483;SDS011;6814;57.786;12.080;2024-03-08T12:15:55;5.37;;;2.50;;
13483;SDS011;6814;57.786;12.080;2024-03-08T12:18:23;2.60;;;2.40;;
13483;SDS011;6814;57.786;12.080;2024-03-08T12:20:50;4.50;;;2.70;;
13483;SDS011;6814;57.786;12.080;2024-03-08T12:23:17;2.40;;;2.20;;
13483;SDS011;6814;57.786;12.080;2024-03-08T12:25:44;3.10;;;2.70;;
13483;SDS011;6814;57.786;12.080;2024-03-08T12:28:13;4.83;;;1.90;;
13483;SDS011;6814;57.786;12.080;2024-03-08T12:30:45;5.37;;;2.27;;
13483;SDS011;6814;57.786;12.080;2024-03-08T12:33:12;3.20;;;2.20;;
13483;SDS011;6814;57.786;12.080;2024-03-08T12:35:39;5.20;;;2.10;;
13483;SDS011;6814;57.786;12.080;2024-03-08T12:38:05;1.80;;;1.70;;
13483;SDS011;6814;57.786;12.080;2024-03-08T12:40:33;5.30;;;2.13;;
13483;SDS011;6814;57.786;12.080;2024-03-08T12:43:05;3.50;;;2.33;;
13483;SDS011;6814;57.786;12.080;2024-03-08T12:45:32;1.83;;;1.73;;
13483;SDS011;6814;57.786;12.080;2024-03-08T12:48:01;2.87;;;1.90;;
13483;SDS011;6814;57.786;12.080;2024-03-08T12:50:28;2.10;;;2.00;;
13483;SDS011;6814;57.786;12.080;2024-03-08T12:52:55;3.53;;;1.93;;
13483;SDS011;6814;57.786;12.080;2024-03-08T12:55:22;1.93;;;1.80;;
13483;SDS011;6814;57.786;12.080;2024-03-08T12:57:49;1.80;;;1.70;;
13483;SDS011;6814;57.786;12.080;2024-03-08T13:00:18;3.33;;;1.97;;
13483;SDS011;6814;57.786;12.080;2024-03-08T13:02:45;2.97;;;1.77;;
13483;SDS011;6814;57.786;12.080;2024-03-08T13:05:13;2.43;;;1.70;;
13483;SDS011;6814;57.786;12.080;2024-03-08T13:07:40;2.50;;;1.60;;
13483;SDS011;6814;57.786;12.080;2024-03-08T13:10:11;2.07;;;1.87;;
13483;SDS011;6814;57.786;12.080;2024-03-08T13:12:39;1.77;;;1.67;;
13483;SDS011;6814;57.786;12.080;2024-03-08T13:15:07;2.17;;;1.50;;
13483;SDS011;6814;57.786;12.080;2024-03-08T13:17:36;1.83;;;1.60;;
13483;SDS011;6814;57.786;12.080;2024-03-08T13:20:08;3.43;;;1.43;;
13483;SDS011;6814;57.786;12.080;2024-03-08T13:22:43;1.97;;;1.80;;
13483;SDS011;6814;57.786;12.080;2024-03-08T13:25:10;3.07;;;2.20;;
13483;SDS011;6814;57.786;12.080;2024-03-08T13:27:38;1.60;;;1.50;;
13483;SDS011;6814;57.786;12.080;2024-03-08T13:30:06;1.50;;;1.40;;
13483;SDS011;6814;57.786;12.080;2024-03-08T13:32:38;1.73;;;1.63;;
13483;SDS011;6814;57.786;12.080;2024-03-08T13:35:05;1.40;;;1.30;;
13483;SDS011;6814;57.786;12.080;2024-03-08T13:37:37;3.43;;;1.70;;
13483;SDS011;6814;57.786;12.080;2024-03-08T13:40:07;2.00;;;1.90;;
13483;SDS011;6814;57.786;12.080;2024-03-08T13:42:39;2.03;;;1.90;;
13483;SDS011;6814;57.786;12.080;2024-03-08T13:45:06;3.93;;;2.17;;
13483;SDS011;6814;57.786;12.080;2024-03-08T13:47:34;2.57;;;2.37;;
13483;SDS011;6814;57.786;12.080;2024-03-08T13:50:02;2.10;;;2.00;;
13483;SDS011;6814;57.786;12.080;2024-03-08T13:52:32;4.43;;;1.77;;
13483;SDS011;6814;57.786;12.080;2024-03-08T13:54:59;2.57;;;1.73;;
13483;SDS011;6814;57.786;12.080;2024-03-08T13:57:27;4.03;;;1.90;;
13483;SDS011;6814;57.786;12.080;2024-03-08T13:59:54;1.87;;;1.50;;
13483;SDS011;6814;57.786;12.080;2024-03-08T14:02:21;1.70;;;1.60;;
13483;SDS011;6814;57.786;12.080;2024-03-08T14:04:50;2.33;;;1.80;;
13483;SDS011;6814;57.786;12.080;2024-03-08T14:07:16;2.43;;;2.00;;
13483;SDS011;6814;57.786;12.080;2024-03-08T14:09:43;2.70;;;1.80;;
13483;SDS011;6814;57.786;12.080;2024-03-08T14:12:10;1.60;;;1.50;;
13483;SDS011;6814;57.786;12.080;2024-03-08T14:14:41;1.70;;;1.60;;
13483;SDS011;6814;57.786;12.080;2024-03-08T14:17:09;3.17;;;1.60;;
13483;SDS011;6814;57.786;12.080;2024-03-08T14:19:36;2.23;;;1.63;;
13483;SDS011;6814;57.786;12.080;2024-03-08T14:22:04;3.17;;;1.60;;
13483;SDS011;6814;57.786;12.080;2024-03-08T14:24:32;2.27;;;1.73;;
13483;SDS011;6814;57.786;12.080;2024-03-08T14:27:00;3.57;;;2.10;;
13483;SDS011;6814;57.786;12.080;2024-03-08T14:29:28;2.60;;;1.83;;
13483;SDS011;6814;57.786;12.080;2024-03-08T14:31:59;2.37;;;2.17;;
13483;SDS011;6814;57.786;12.080;2024-03-08T14:34:26;2.37;;;1.80;;
13483;SDS011;6814;57.786;12.080;2024-03-08T14:36:54;2.27;;;1.80;;
13483;SDS011;6814;57.786;12.080;2024-03-08T14:39:24;4.23;;;2.17;;
13483;SDS011;6814;57.786;12.080;2024-03-08T14:41:51;2.00;;;1.90;;
13483;SDS011;6814;57.786;12.080;2024-03-08T14:44:18;2.10;;;1.90;;